Time;durP1;ratioP1;P1;durP2;ratioP2;P2;SDS_P1;SDS_P2;PMS_P1;PMS_P2;Temp;Humidity;BMP_temperature;BMP_pressure;BME280_temperature;BME280_humidity;BME280_pressure;Samples;Min_cycle;Max_cycle;Signal;HPM_P1;HPM_P2
2024/01/22 00:02:06;;;;;;;6.28;2.70;;;;;;;11.46;60.18;100909.22;4860882;28;124154;-81
2024/01/22 00:04:33;;;;;;;5.28;2.78;;;;;;;11.50;60.51;100905.50;4858888;28;119328;-80
2024/01/22 00:07:00;;;;;;;5.78;2.50;;;;;;;11.53;60.18;100885.06;4852715;28;120726;-80
2024/01/22 00:09:27;;;;;;;6.88;2.90;;;;;;;11.56;60.32;100863.69;4866114;28;123007;-80
2024/01/22 00:11:54;;;;;;;6.28;2.72;;;;;;;11.58;60.17;100843.25;4854107;28;123801;-80
2024/01/22 00:14:22;;;;;;;5.63;2.67;;;;;;;11.60;60.17;100836.06;4860320;28;122049;-80
2024/01/22 00:16:49;;;;;;;5.15;2.50;;;;;;;11.63;60.14;100841.25;4853814;28;121610;-81
2024/01/22 00:19:16;;;;;;;4.90;2.28;;;;;;;11.66;60.30;100819.88;4867473;28;125226;-80
2024/01/22 00:21:43;;;;;;;6.07;2.60;;;;;;;11.67;60.18;100816.28;4854417;28;122841;-80
2024/01/22 00:24:10;;;;;;;5.47;2.47;;;;;;;11.72;60.12;100802.78;4871661;28;119069;-81
2024/01/22 00:26:38;;;;;;;3.92;2.33;;;;;;;11.74;60.13;100812.38;4854522;28;119525;-80
2024/01/22 00:29:06;;;;;;;4.07;2.50;;;;;;;11.78;60.14;100827.22;4862105;28;125318;-81
2024/01/22 00:31:33;;;;;;;5.10;2.60;;;;;;;11.80;60.05;100809.41;4862994;28;125663;-81
2024/01/22 00:34:00;;;;;;;4.82;2.42;;;;;;;11.81;60.16;100803.19;4869568;28;120393;-81
2024/01/22 00:36:28;;;;;;;3.88;2.05;;;;;;;11.85;60.15;100810.03;4855450;28;119126;-80
2024/01/22 00:38:55;;;;;;;4.22;2.38;;;;;;;11.87;60.05;100808.16;4868137;28;125343;-80
2024/01/22 00:41:22;;;;;;;4.43;2.35;;;;;;;11.92;60.00;100788.53;4856660;28;123673;-80
2024/01/22 00:43:50;;;;;;;4.55;2.60;;;;;;;11.94;59.90;100776.03;4861316;28;118466;-80
2024/01/22 00:46:17;;;;;;;5.38;2.10;;;;;;;11.96;60.24;100784.75;4868885;28;119967;-80
2024/01/22 00:48:44;;;;;;;4.03;2.50;;;;;;;11.98;59.96;100766.97;4853265;28;122998;-80
2024/01/22 00:51:12;;;;;;;5.90;2.47;;;;;;;12.00;59.85;100746.53;4863151;28;123050;-79
2024/01/22 00:53:39;;;;;;;5.15;2.10;;;;;;;12.01;60.15;100756.19;4856324;28;120802;-80
2024/01/22 00:56:06;;;;;;;6.05;2.20;;;;;;;12.02;59.98;100773.84;4858427;28;116786;-80
2024/01/22 00:58:36;;;;;;;4.70;2.50;;;;;;;12.04;59.90;100734.81;4870422;28;125263;-80
2024/01/22 01:01:05;;;;;;;5.05;2.20;;;;;;;12.06;60.06;100760.31;4842357;28;123863;-80
2024/01/22 01:03:32;;;;;;;4.05;2.03;;;;;;;12.10;60.07;100760.19;4856944;28;118339;-80
2024/01/22 01:06:00;;;;;;;6.82;2.40;;;;;;;12.13;59.83;100752.91;4841656;28;120449;-80
2024/01/22 01:08:27;;;;;;;5.97;2.25;;;;;;;12.14;59.89;100735.19;4853233;28;123420;-80
2024/01/22 01:10:54;;;;;;;4.20;2.25;;;;;;;12.17;59.89;100759.78;4857134;28;123146;-80
2024/01/22 01:13:21;;;;;;;6.05;2.47;;;;;;;12.18;59.88;100753.50;4868734;28;119233;-80
2024/01/22 01:15:49;;;;;;;2.83;1.90;;;;;;;12.20;59.82;100730.38;4853112;28;119606;-80
2024/01/22 01:18:16;;;;;;;5.15;2.20;;;;;;;12.22;59.80;100744.47;4871946;28;124153;-80
2024/01/22 01:20:43;;;;;;;4.57;2.35;;;;;;;12.24;59.77;100709.84;4880299;28;124909;-80
2024/01/22 01:23:11;;;;;;;4.03;2.03;;;;;;;12.27;59.70;100731.78;4850455;28;117300;-80
2024/01/22 01:25:38;;;;;;;4.43;2.03;;;;;;;12.29;59.79;100744.13;4848597;28;120190;-80
2024/01/22 01:28:05;;;;;;;3.38;2.00;;;;;;;12.31;59.47;100729.81;4865540;28;123233;-80
2024/01/22 01:30:33;;;;;;;5.20;2.00;;;;;;;12.34;59.70;100731.44;4840978;28;123606;-80
2024/01/22 01:33:00;;;;;;;3.58;2.10;;;;;;;12.37;59.61;100747.22;4882975;28;117552;-80
2024/01/22 01:35:27;;;;;;;4.95;2.03;;;;;;;12.38;59.51;100741.81;4885978;28;117286;-80
2024/01/22 01:37:54;;;;;;;3.95;1.92;;;;;;;12.40;59.51;100736.44;4857261;28;123587;-80
2024/01/22 01:40:22;;;;;;;4.07;1.90;;;;;;;12.44;59.39;100730.00;4877063;28;122596;-80
2024/01/22 01:42:49;;;;;;;3.78;2.00;;;;;;;12.46;59.60;100730.78;4875279;28;120377;-80
2024/01/22 01:45:16;;;;;;;3.33;2.00;;;;;;;12.48;59.56;100718.25;4861567;28;118589;-80
2024/01/22 01:47:50;;;;;;;4.82;2.10;;;;;;;12.53;59.59;100715.38;4877998;28;123958;-80
2024/01/22 01:50:17;;;;;;;3.15;1.90;;;;;;;12.58;59.37;100729.22;4849840;28;124206;-80
2024/01/22 01:52:45;;;;;;;3.38;1.83;;;;;;;12.61;59.39;100724.63;4873359;28;119100;-80
2024/01/22 01:55:12;;;;;;;4.20;1.60;;;;;;;12.63;59.34;100714.75;4872485;28;121201;-80
2024/01/22 01:57:40;;;;;;;3.28;1.70;;;;;;;12.68;59.27;100721.59;4857077;28;125700;-81
2024/01/22 02:00:12;;;;;;;3.25;1.75;;;;;;;12.70;59.40;100695.84;4834264;28;124073;-80
2024/01/22 02:02:40;;;;;;;3.75;1.70;;;;;;;12.73;59.17;100700.97;4873928;28;118965;-80
2024/01/22 02:05:08;;;;;;;4.20;1.73;;;;;;;12.74;59.30;100692.06;4859455;28;118829;-80
2024/01/22 02:07:36;;;;;;;4.43;1.90;;;;;;;12.78;59.08;100693.59;4865091;28;121963;-80
2024/01/22 02:10:03;;;;;;;4.18;2.08;;;;;;;12.81;58.99;100693.44;4853244;28;123602;-80
2024/01/22 02:12:30;;;;;;;5.20;1.70;;;;;;;12.84;59.05;100687.91;4857924;28;120310;-80
2024/01/22 02:14:57;;;;;;;2.83;1.58;;;;;;;12.85;59.11;100663.06;4855924;28;118520;-81
2024/01/22 02:17:25;;;;;;;4.65;1.88;;;;;;;12.88;59.14;100652.22;4872244;28;123138;-80
2024/01/22 02:19:52;;;;;;;4.40;2.00;;;;;;;12.91;59.12;100656.53;4861986;28;123236;-81
2024/01/22 02:22:19;;;;;;;2.85;1.70;;;;;;;12.94;59.18;100641.28;4871616;28;119988;-80
2024/01/22 02:24:46;;;;;;;2.70;1.67;;;;;;;12.95;58.99;100653.59;4857772;28;118623;-80
2024/01/22 02:27:14;;;;;;;3.70;1.63;;;;;;;12.96;59.15;100626.09;4872367;28;124619;-80
2024/01/22 02:29:41;;;;;;;3.72;1.65;;;;;;;12.99;58.94;100654.28;4853316;28;124310;-80
2024/01/22 02:32:09;;;;;;;3.60;1.77;;;;;;;13.01;59.13;100639.94;4858369;28;119682;-80
2024/01/22 02:34:37;;;;;;;2.25;1.60;;;;;;;13.04;59.02;100625.63;4850364;28;118316;-80
2024/01/22 02:37:04;;;;;;;2.80;1.70;;;;;;;13.07;58.99;100608.63;4847155;28;124068;-80
2024/01/22 02:39:32;;;;;;;3.40;1.80;;;;;;;13.08;58.96;100610.34;4860560;28;124726;-80
2024/01/22 02:41:59;;;;;;;3.40;1.60;;;;;;;13.09;58.95;100590.78;4863206;28;121021;-80
2024/01/22 02:44:26;;;;;;;3.22;1.45;;;;;;;13.11;58.97;100583.56;4840819;28;120622;-80
2024/01/22 02:46:53;;;;;;;2.90;1.60;;;;;;;13.12;58.86;100574.66;4860799;28;124138;-80
2024/01/22 02:49:20;;;;;;;4.10;1.40;;;;;;;13.15;58.85;100569.16;4868972;28;123114;-80
2024/01/22 02:51:48;;;;;;;2.53;1.63;;;;;;;13.16;59.15;100549.59;4850362;28;118512;-80
2024/01/22 02:54:15;;;;;;;2.00;1.50;;;;;;;13.17;59.08;100546.84;4844633;28;119253;-80
2024/01/22 02:56:43;;;;;;;3.28;1.63;;;;;;;13.20;59.27;100540.47;4872669;28;124798;-81
2024/01/22 02:59:10;;;;;;;3.95;1.73;;;;;;;13.21;58.88;100542.19;4871770;28;124402;-81
2024/01/22 03:01:37;;;;;;;2.33;1.33;;;;;;;13.20;59.55;100521.84;4859047;28;118450;-81
2024/01/22 03:04:04;;;;;;;3.17;1.70;;;;;;;13.19;59.21;100538.78;4870039;28;118013;-81
2024/01/22 03:06:32;;;;;;;2.30;1.40;;;;;;;13.19;59.44;100518.34;4869735;28;124032;-81
2024/01/22 03:08:59;;;;;;;3.15;1.52;;;;;;;13.19;59.32;100490.91;4854860;28;124169;-81
2024/01/22 03:11:26;;;;;;;3.83;1.58;;;;;;;13.20;59.66;100508.56;4862318;28;117662;-82
2024/01/22 03:13:54;;;;;;;2.55;1.50;;;;;;;13.22;59.73;100506.66;4831943;28;120125;-82
2024/01/22 03:16:21;;;;;;;4.72;1.80;;;;;;;13.23;59.79;100497.75;4872063;28;124130;-81
2024/01/22 03:18:49;;;;;;;2.63;1.67;;;;;;;13.24;59.83;100496.78;4859113;28;123366;-81
2024/01/22 03:21:16;;;;;;;3.45;1.45;;;;;;;13.24;59.96;100499.44;4853357;28;121068;-81
2024/01/22 03:23:44;;;;;;;2.80;1.45;;;;;;;13.23;60.04;100487.09;4861859;28;118895;-81
2024/01/22 03:26:19;;;;;;;2.45;1.63;;;;;;;13.20;60.22;100493.47;4854535;28;124137;-82
2024/01/22 03:28:50;;;;;;;2.00;1.42;;;;;;;13.21;60.20;100470.38;4850702;28;124460;-82
2024/01/22 03:31:28;;;;;;;2.47;1.52;;;;;;;13.21;60.41;100468.56;4861389;28;120976;-81
2024/01/22 03:33:56;;;;;;;3.45;1.60;;;;;;;13.21;60.45;100462.41;4869693;28;121683;-81
2024/01/22 03:36:24;;;;;;;5.82;1.70;;;;;;;13.22;60.62;100480.06;4865236;28;126124;-81
2024/01/22 03:38:52;;;;;;;3.20;1.30;;;;;;;13.21;60.61;100463.25;4847299;28;124372;-81
2024/01/22 03:41:19;;;;;;;2.80;1.40;;;;;;;13.22;60.70;100464.09;4868125;28;120410;-81
2024/01/22 03:43:47;;;;;;;2.55;1.40;;;;;;;13.23;60.73;100444.56;4860226;28;120446;-82
2024/01/22 03:46:15;;;;;;;3.13;1.45;;;;;;;13.23;60.77;100466.69;4854073;28;124108;-81
2024/01/22 03:48:42;;;;;;;4.47;1.40;;;;;;;13.24;60.84;100436.50;4868187;28;122240;-81
2024/01/22 03:51:09;;;;;;;3.00;1.38;;;;;;;13.25;60.90;100466.59;4851556;28;119920;-81
2024/01/22 03:53:37;;;;;;;2.40;1.50;;;;;;;13.27;61.15;100450.53;4868828;28;118059;-83
2024/01/22 03:56:05;;;;;;;3.95;1.40;;;;;;;13.28;60.98;100458.44;4853337;28;123919;-81
2024/01/22 03:58:33;;;;;;;3.03;1.40;;;;;;;13.29;60.84;100444.16;4844876;28;124899;-81
2024/01/22 04:01:02;;;;;;;2.55;1.38;;;;;;;13.28;61.01;100439.81;4828020;28;120070;-81
2024/01/22 04:03:33;;;;;;;2.63;1.40;;;;;;;13.28;61.06;100436.28;4851796;28;120211;-81
2024/01/22 04:06:01;;;;;;;2.75;1.30;;;;;;;13.26;61.29;100433.75;4839808;28;124999;-81
2024/01/22 04:08:28;;;;;;;2.45;1.30;;;;;;;13.24;61.25;100438.28;4852576;28;126296;-81
2024/01/22 04:10:55;;;;;;;3.05;1.30;;;;;;;13.23;61.53;100436.56;4870995;28;119782;-82
2024/01/22 04:13:22;;;;;;;4.53;1.33;;;;;;;13.22;61.59;100440.16;4859843;28;120026;-82
2024/01/22 04:16:01;;;;;;;1.83;1.17;;;;;;;13.22;61.67;100426.88;4866030;28;125601;-82
2024/01/22 04:18:28;;;;;;;2.70;1.25;;;;;;;13.22;61.70;100426.88;4857339;28;123933;-82
2024/01/22 04:20:56;;;;;;;2.83;1.40;;;;;;;13.21;61.91;100415.41;4855312;28;120014;-82
2024/01/22 04:23:23;;;;;;;2.42;1.45;;;;;;;13.22;61.96;100442.84;4872103;28;119874;-83
2024/01/22 04:25:50;;;;;;;4.13;1.30;;;;;;;13.21;62.03;100433.16;4874483;28;124877;-82
2024/01/22 04:28:17;;;;;;;2.17;1.33;;;;;;;13.22;62.18;100432.19;4847654;28;124011;-81
2024/01/22 04:30:45;;;;;;;2.33;1.33;;;;;;;13.20;62.20;100420.81;4871089;28;120155;-82
2024/01/22 04:33:13;;;;;;;1.52;1.10;;;;;;;13.20;62.15;100418.16;4868907;28;118449;-82
2024/01/22 04:35:41;;;;;;;2.17;1.25;;;;;;;13.20;62.19;100413.69;4861350;28;122779;-82
2024/01/22 04:38:08;;;;;;;2.67;1.25;;;;;;;13.21;62.25;100419.88;4854037;28;125074;-82
2024/01/22 04:40:35;;;;;;;1.63;1.08;;;;;;;13.21;62.48;100422.53;4829657;28;120013;-82
2024/01/22 04:43:03;;;;;;;3.25;1.20;;;;;;;13.21;62.31;100415.41;4841815;28;118075;-81
2024/01/22 04:45:30;;;;;;;2.00;1.25;;;;;;;13.21;62.60;100425.19;4852087;28;123638;-82
2024/01/22 04:47:58;;;;;;;2.33;1.20;;;;;;;13.23;62.35;100407.31;4846560;28;123248;-82
2024/01/22 04:50:26;;;;;;;3.58;1.40;;;;;;;13.24;62.46;100424.97;4851572;28;118447;-82
2024/01/22 04:52:53;;;;;;;2.35;1.20;;;;;;;13.24;62.59;100419.66;4857295;28;117745;-83
2024/01/22 04:55:20;;;;;;;3.83;1.30;;;;;;;13.24;62.71;100395.72;4854548;28;123411;-82
2024/01/22 04:57:50;;;;;;;2.92;1.30;;;;;;;13.26;62.80;100391.19;4870384;28;123136;-82
2024/01/22 05:00:18;;;;;;;2.25;1.20;;;;;;;13.26;62.80;100401.81;4863656;28;120180;-81
2024/01/22 05:02:45;;;;;;;2.40;1.08;;;;;;;13.28;62.76;100399.91;4861841;28;119670;-82
2024/01/22 05:05:13;;;;;;;1.67;1.20;;;;;;;13.28;62.83;100378.63;4841920;28;123107;-81
2024/01/22 05:07:41;;;;;;;2.30;1.38;;;;;;;13.30;63.12;100387.41;4832929;28;125329;-82
2024/01/22 05:10:13;;;;;;;3.15;1.13;;;;;;;13.32;62.95;100369.53;4838047;28;119455;-82
2024/01/22 05:12:41;;;;;;;3.28;1.30;;;;;;;13.35;62.96;100369.31;4857923;28;118467;-82
2024/01/22 05:15:10;;;;;;;1.98;1.10;;;;;;;13.37;63.07;100367.44;4867221;28;123816;-82
2024/01/22 05:17:38;;;;;;;1.73;0.98;;;;;;;13.37;62.97;100378.09;4852022;28;124907;-82
2024/01/22 05:20:06;;;;;;;2.22;1.20;;;;;;;13.39;62.98;100359.34;4841899;28;120135;-82
2024/01/22 05:22:35;;;;;;;2.08;1.25;;;;;;;13.42;63.17;100360.00;4843658;28;120029;-82
2024/01/22 05:25:03;;;;;;;2.50;1.20;;;;;;;13.44;63.10;100362.56;4849738;28;124353;-82
2024/01/22 05:27:30;;;;;;;2.92;1.30;;;;;;;13.46;63.17;100371.31;4860142;28;123905;-81
2024/01/22 05:29:58;;;;;;;3.03;1.05;;;;;;;13.49;63.15;100364.94;4843391;28;118734;-82
2024/01/22 05:32:25;;;;;;;2.67;1.10;;;;;;;13.51;63.24;100368.34;4851260;28;119860;-82
2024/01/22 05:34:52;;;;;;;1.80;1.10;;;;;;;13.51;63.10;100357.72;4849601;28;123462;-82
2024/01/22 05:37:19;;;;;;;2.30;1.10;;;;;;;13.54;63.26;100368.13;4878003;28;123922;-82
2024/01/22 05:39:47;;;;;;;3.38;1.00;;;;;;;13.57;63.22;100367.94;4870533;28;117471;-82
2024/01/22 05:42:14;;;;;;;1.90;0.98;;;;;;;13.58;63.34;100380.28;4887970;28;118588;-81
2024/01/22 05:44:41;;;;;;;3.50;1.27;;;;;;;13.59;63.17;100395.31;4869223;28;122388;-81
2024/01/22 05:47:09;;;;;;;2.13;1.02;;;;;;;13.62;63.41;100373.84;4839946;28;124632;-82
2024/01/22 05:49:36;;;;;;;2.72;1.00;;;;;;;13.64;63.26;100374.59;4853109;28;117811;-82
2024/01/22 05:52:04;;;;;;;1.50;1.00;;;;;;;13.65;63.30;100370.94;4854692;28;119002;-82
2024/01/22 05:54:31;;;;;;;2.53;0.93;;;;;;;13.67;63.51;100379.69;4844750;28;123291;-81
2024/01/22 05:56:58;;;;;;;2.53;1.00;;;;;;;13.69;63.49;100388.41;4881357;28;122929;-82
2024/01/22 05:59:25;;;;;;;2.30;0.95;;;;;;;13.73;63.42;100394.41;4852151;28;120896;-81
2024/01/22 06:01:56;;;;;;;2.67;1.10;;;;;;;13.74;63.41;100386.31;4849365;28;118401;-81
2024/01/22 06:04:24;;;;;;;2.90;1.00;;;;;;;13.78;63.42;100387.81;4853762;28;123254;-82
2024/01/22 06:06:51;;;;;;;1.83;0.90;;;;;;;13.80;63.51;100391.22;4863534;28;123578;-82
2024/01/22 06:09:18;;;;;;;4.07;0.93;;;;;;;13.83;63.58;100406.16;4860014;28;120127;-81
2024/01/22 06:11:46;;;;;;;1.70;1.08;;;;;;;13.86;63.68;100399.78;4885207;28;118733;-82
2024/01/22 06:14:13;;;;;;;1.70;0.95;;;;;;;13.89;63.59;100394.25;4866550;28;124750;-82
2024/01/22 06:16:40;;;;;;;2.38;1.00;;;;;;;13.91;63.67;100392.34;4831928;28;125192;-81
2024/01/22 06:19:07;;;;;;;3.17;1.50;;;;;;;13.92;63.70;100400.25;4855992;28;120288;-81
2024/01/22 06:21:35;;;;;;;1.92;1.13;;;;;;;13.93;63.57;100385.09;4874221;28;120044;-82
2024/01/22 06:24:02;;;;;;;2.03;0.93;;;;;;;13.95;63.74;100372.53;4874511;28;123750;-82
2024/01/22 06:26:29;;;;;;;3.30;1.30;;;;;;;13.97;63.82;100378.63;4841999;28;124337;-82
2024/01/22 06:28:59;;;;;;;2.13;1.00;;;;;;;13.99;63.93;100390.03;4856247;28;118866;-82
2024/01/22 06:31:27;;;;;;;3.25;0.98;;;;;;;14.00;63.87;100359.78;4857443;28;121917;-82
2024/01/22 06:33:54;;;;;;;1.95;1.13;;;;;;;14.00;63.87;100375.75;4871843;28;123747;-82
2024/01/22 06:36:21;;;;;;;3.08;1.00;;;;;;;14.00;63.99;100375.75;4870766;28;124869;-82
2024/01/22 06:38:48;;;;;;;2.05;1.10;;;;;;;14.01;64.09;100383.66;4859501;28;119066;-82
2024/01/22 06:41:18;;;;;;;3.00;1.08;;;;;;;14.02;64.09;100389.81;4847219;28;120055;-82
2024/01/22 06:43:46;;;;;;;2.22;0.70;;;;;;;14.01;64.05;100388.97;4846744;28;124708;-82
2024/01/22 06:46:13;;;;;;;1.60;0.90;;;;;;;14.04;64.18;100397.72;4871620;28;123697;-82
2024/01/22 06:48:40;;;;;;;1.55;0.77;;;;;;;14.03;64.17;100402.16;4857815;28;121158;-82
2024/01/22 06:51:09;;;;;;;1.60;1.00;;;;;;;14.04;63.99;100403.88;4840972;28;119692;-82
2024/01/22 06:53:37;;;;;;;2.67;1.00;;;;;;;14.04;64.34;100409.22;4845228;28;125100;-82
2024/01/22 06:56:05;;;;;;;2.97;0.95;;;;;;;14.04;64.09;100406.53;4854400;28;123308;-82
2024/01/22 06:58:32;;;;;;;1.48;1.00;;;;;;;14.06;64.30;100406.44;4856868;28;120902;-82
2024/01/22 07:00:59;;;;;;;2.30;0.90;;;;;;;14.05;64.33;100405.56;4853482;28;119141;-82
2024/01/22 07:03:27;;;;;;;1.90;0.90;;;;;;;14.05;64.33;100400.25;4852953;28;125196;-82
2024/01/22 07:05:54;;;;;;;1.80;0.82;;;;;;;14.06;64.50;100417.94;4868219;28;123811;-82
2024/01/22 07:08:21;;;;;;;1.92;1.05;;;;;;;14.08;64.45;100426.69;4853952;28;119392;-82
2024/01/22 07:10:49;;;;;;;1.27;0.80;;;;;;;14.09;64.38;100423.09;4871700;28;119553;-82
2024/01/22 07:13:16;;;;;;;1.30;0.80;;;;;;;14.10;64.41;100435.44;4858332;28;124795;-82
2024/01/22 07:15:43;;;;;;;1.92;1.00;;;;;;;14.11;64.47;100426.50;4868159;28;123775;-81
2024/01/22 07:18:10;;;;;;;1.30;1.00;;;;;;;14.13;64.41;100427.25;4855245;28;120930;-82
2024/01/22 07:20:38;;;;;;;1.70;0.77;;;;;;;14.14;64.72;100431.59;4855008;28;118082;-82
2024/01/22 07:23:06;;;;;;;1.55;0.60;;;;;;;14.16;64.52;100437.66;4859258;28;121915;-82
2024/01/22 07:25:36;;;;;;;1.08;0.60;;;;;;;14.15;64.43;100433.31;4859573;28;122548;-82
2024/01/22 07:28:04;;;;;;;1.20;0.80;;;;;;;14.18;64.25;100437.56;4839316;28;120782;-81
2024/01/22 07:30:32;;;;;;;1.38;0.75;;;;;;;14.18;64.28;100433.13;4869800;28;119545;-82
2024/01/22 07:32:59;;;;;;;2.28;0.80;;;;;;;14.18;64.19;100433.13;4855138;28;124660;-82
2024/01/22 07:35:27;;;;;;;1.92;0.90;;;;;;;14.19;64.14;100444.63;4836826;28;124233;-82
2024/01/22 07:37:54;;;;;;;2.85;0.98;;;;;;;14.20;64.25;100441.88;4867377;28;120647;-82
2024/01/22 07:40:21;;;;;;;3.60;0.90;;;;;;;14.23;64.25;100439.94;4854767;28;119375;-82
2024/01/22 07:42:48;;;;;;;3.08;0.90;;;;;;;14.24;64.21;100452.28;4853768;28;124942;-82
2024/01/22 07:45:16;;;;;;;3.10;1.02;;;;;;;14.25;64.23;100443.34;4852107;28;122614;-82
2024/01/22 07:47:43;;;;;;;5.15;1.05;;;;;;;14.27;64.14;100452.09;4843865;28;120506;-82
2024/01/22 07:50:13;;;;;;;3.03;0.95;;;;;;;14.28;64.07;100448.47;4852237;28;120081;-81
2024/01/22 07:52:42;;;;;;;3.45;1.10;;;;;;;14.30;64.19;100446.59;4857807;28;125133;-81
2024/01/22 07:55:17;;;;;;;4.25;1.13;;;;;;;14.32;64.31;100455.31;4848174;28;124372;-81
2024/01/22 07:57:44;;;;;;;3.97;1.20;;;;;;;14.34;64.28;100448.06;4855587;28;119410;-81
2024/01/22 08:00:12;;;;;;;2.10;0.90;;;;;;;14.37;64.11;100447.84;4849116;28;118229;-81
2024/01/22 08:02:40;;;;;;;2.70;1.10;;;;;;;14.38;64.13;100455.75;4869592;28;123982;-81
2024/01/22 08:05:12;;;;;;;5.10;1.50;;;;;;;14.41;63.96;100454.72;4835106;28;125167;-81
2024/01/22 08:07:42;;;;;;;3.28;1.10;;;;;;;14.42;64.15;100451.06;4848747;28;118905;-80
2024/01/22 08:10:10;;;;;;;5.50;0.90;;;;;;;14.44;64.08;100443.81;4845429;28;120719;-79
2024/01/22 08:12:37;;;;;;;4.85;1.02;;;;;;;14.46;63.99;100449.06;4866699;28;123818;-80
2024/01/22 08:15:04;;;;;;;3.22;1.00;;;;;;;14.45;63.98;100453.53;4846200;28;124010;-80
2024/01/22 08:17:32;;;;;;;9.40;1.42;;;;;;;14.47;63.89;100453.44;4871258;28;119051;-81
2024/01/22 08:19:59;;;;;;;6.93;1.30;;;;;;;14.47;64.25;100448.09;4867188;28;119456;-80
2024/01/22 08:22:26;;;;;;;6.60;1.17;;;;;;;14.46;63.94;100457.88;4850195;28;123870;-81
2024/01/22 08:24:54;;;;;;;5.53;1.40;;;;;;;14.46;63.92;100452.56;4865784;28;123452;-81
2024/01/22 08:27:21;;;;;;;5.88;1.55;;;;;;;14.45;64.10;100461.53;4851459;28;121206;-81
2024/01/22 08:29:48;;;;;;;9.77;1.70;;;;;;;14.45;64.03;100466.84;4865137;28;119387;-81
2024/01/22 08:32:15;;;;;;;9.18;2.05;;;;;;;14.43;64.11;100474.09;4854165;28;124241;-82
2024/01/22 08:34:43;;;;;;;6.82;1.65;;;;;;;14.42;64.16;100472.38;4861998;28;122350;-81
2024/01/22 08:37:10;;;;;;;9.00;1.70;;;;;;;14.41;64.18;100492.00;4863206;28;118917;-82
2024/01/22 08:39:37;;;;;;;7.82;1.83;;;;;;;14.40;64.21;100500.94;4854242;28;119921;-81
2024/01/22 08:42:05;;;;;;;10.80;2.28;;;;;;;14.39;64.39;100501.88;4853657;28;124751;-83
2024/01/22 08:44:32;;;;;;;10.07;2.13;;;;;;;14.36;64.40;100481.63;4856621;28;122284;-82
2024/01/22 08:47:00;;;;;;;9.40;1.77;;;;;;;14.37;64.32;100463.84;4853393;28;119014;-82
2024/01/22 08:49:29;;;;;;;8.35;1.70;;;;;;;14.35;64.31;100481.75;4846272;28;119254;-81
2024/01/22 08:51:56;;;;;;;4.82;1.45;;;;;;;14.35;64.40;100481.75;4838643;28;123789;-82
2024/01/22 08:54:23;;;;;;;5.45;1.30;;;;;;;14.33;64.52;100470.34;4836490;28;124890;-81
2024/01/22 08:56:50;;;;;;;3.35;1.17;;;;;;;14.31;64.43;100474.91;4862598;28;119446;-81
2024/01/22 08:59:18;;;;;;;5.55;1.30;;;;;;;14.31;64.37;100496.22;4861829;28;118387;-82
2024/01/22 09:01:45;;;;;;;7.53;1.60;;;;;;;14.28;64.55;100465.31;4858097;28;123751;-81
2024/01/22 09:04:12;;;;;;;10.07;1.90;;;;;;;14.28;64.62;100486.63;4852965;28;123444;-81
2024/01/22 09:06:40;;;;;;;13.05;2.13;;;;;;;14.26;64.69;100499.22;4835703;28;119919;-82
2024/01/22 09:09:09;;;;;;;9.57;1.75;;;;;;;14.25;64.66;100491.31;4855439;28;117121;-81
2024/01/22 09:11:36;;;;;;;8.20;1.70;;;;;;;14.24;64.78;100501.13;4863052;28;124292;-83
2024/01/22 09:14:04;;;;;;;13.13;1.83;;;;;;;14.23;64.84;100498.53;4852430;28;124004;-82
2024/01/22 09:16:31;;;;;;;9.48;1.70;;;;;;;14.21;64.75;100494.16;4863294;28;120684;-82
2024/01/22 09:18:58;;;;;;;6.28;1.65;;;;;;;14.21;64.70;100491.50;4850623;28;120258;-82
2024/01/22 09:21:26;;;;;;;10.18;1.73;;;;;;;14.21;64.60;100490.66;4846803;28;123037;-82
2024/01/22 09:23:53;;;;;;;6.18;1.55;;;;;;;14.24;64.75;100484.25;4850613;28;124440;-82
2024/01/22 09:26:20;;;;;;;5.88;1.30;;;;;;;14.23;64.34;100477.25;4828841;28;118908;-81
2024/01/22 09:28:48;;;;;;;8.55;1.65;;;;;;;14.24;64.65;100476.25;4868593;28;119031;-81
2024/01/22 09:31:15;;;;;;;10.32;1.58;;;;;;;14.24;64.46;100468.28;4852349;28;125134;-82
2024/01/22 09:33:42;;;;;;;7.40;1.55;;;;;;;14.24;64.52;100468.28;4868247;28;125180;-83
2024/01/22 09:36:10;;;;;;;10.18;1.98;;;;;;;14.23;64.91;100458.59;4855362;28;119844;-84
2024/01/22 09:38:40;;;;;;;10.05;1.90;;;;;;;14.19;64.58;100466.78;4852295;28;120080;-82
2024/01/22 09:41:09;;;;;;;14.27;2.13;;;;;;;14.18;64.50;100465.09;4861816;28;122790;-84
2024/01/22 09:43:39;;;;;;;9.38;1.50;;;;;;;14.18;64.70;100451.78;4856009;28;123934;-82
2024/01/22 09:46:07;;;;;;;8.38;1.77;;;;;;;14.16;64.57;100456.31;4870616;28;120058;-82
2024/01/22 09:48:35;;;;;;;7.55;1.70;;;;;;;14.17;64.79;100463.38;4845301;28;119853;-82
2024/01/22 09:51:05;;;;;;;9.73;1.60;;;;;;;14.17;64.59;100463.38;4856566;28;123603;-82
2024/01/22 09:53:36;;;;;;;8.20;1.50;;;;;;;14.19;64.71;100465.94;4852455;29;125323;-82
2024/01/22 09:56:04;;;;;;;5.60;1.35;;;;;;;14.19;65.08;100471.25;4856608;28;120961;-82
2024/01/22 09:58:41;;;;;;;7.07;1.40;;;;;;;14.20;64.68;100459.63;4856487;28;120618;-81
2024/01/22 10:01:12;;;;;;;5.97;1.45;;;;;;;14.20;64.64;100478.28;4871578;28;123769;-82
2024/01/22 10:03:40;;;;;;;10.15;1.45;;;;;;;14.20;64.66;100484.47;4856112;28;125107;-82
2024/01/22 10:06:08;;;;;;;9.13;1.50;;;;;;;14.21;64.68;100482.66;4837772;28;119942;-82
2024/01/22 10:08:36;;;;;;;8.90;1.42;;;;;;;14.20;65.06;100478.28;4845824;28;119795;-82
2024/01/22 10:11:04;;;;;;;11.70;1.63;;;;;;;14.21;64.80;100475.50;4865117;28;124981;-82
2024/01/22 10:13:48;;;;;;;6.53;1.50;;;;;;;14.20;64.82;100479.16;4852322;28;125887;-82
2024/01/22 10:16:15;;;;;;;7.50;1.50;;;;;;;14.22;64.89;100511.00;4859382;28;120306;-82
2024/01/22 10:18:58;;;;;;;8.50;1.58;;;;;;;14.21;64.98;100587.38;4855820;28;120257;-82
2024/01/22 10:21:26;;;;;;;4.55;1.38;;;;;;;14.21;64.66;100582.06;4839985;28;124638;-80
2024/01/22 10:24:00;;;;;;;7.13;1.40;;;;;;;14.10;64.22;100595.22;4852254;28;122724;-79
2024/01/22 10:26:30;;;;;;;6.70;1.33;;;;;;;13.95;63.66;100620.16;4849778;28;120850;-78
2024/01/22 10:29:13;;;;;;;5.65;1.25;;;;;;;13.74;63.72;100593.91;4854731;28;118402;-80
2024/01/22 10:31:57;;;;;;;6.15;1.20;;;;;;;13.59;63.66;100597.53;4854053;28;125036;-80
2024/01/22 10:34:28;;;;;;;9.13;1.38;;;;;;;13.48;63.74;100602.66;4855003;28;121902;-78
2024/01/22 10:37:06;;;;;;;3.78;1.20;;;;;;;13.37;63.86;100601.53;4878363;28;120044;-79
2024/01/22 10:39:35;;;;;;;6.07;1.20;;;;;;;13.30;63.76;100610.81;4883225;28;118904;-80
2024/01/22 10:42:14;;;;;;;3.00;1.00;;;;;;;13.22;63.72;100631.66;4883116;28;122231;-78
2024/01/22 10:44:44;;;;;;;6.75;1.10;;;;;;;13.15;63.84;100623.19;4881160;28;122892;-79
2024/01/22 10:47:14;;;;;;;7.55;1.40;;;;;;;13.09;63.76;100633.31;4884089;28;119752;-79
2024/01/22 10:49:46;;;;;;;5.47;1.10;;;;;;;13.00;63.64;100630.28;4861571;28;118363;-79
2024/01/22 10:52:17;;;;;;;;;;;;;;;12.92;63.84;100637.84;4882036;28;122787;-78
2024/01/22 10:54:44;;;;;;;7.68;1.45;;;;;;;12.87;63.59;100634.59;4869785;28;122810;-79
2024/01/22 10:57:23;;;;;;;8.70;1.67;;;;;;;12.80;63.77;100630.56;4865848;28;119719;-79
2024/01/22 10:59:58;;;;;;;8.50;1.90;;;;;;;12.77;63.79;100633.41;4847972;28;119111;-78
2024/01/22 11:02:34;;;;;;;10.15;1.95;;;;;;;12.73;63.95;100631.88;4874424;28;123375;-79
2024/01/22 11:05:06;;;;;;;11.27;1.55;;;;;;;12.69;63.90;100630.34;4851057;28;126185;-79
2024/01/22 11:07:39;;;;;;;11.25;2.15;;;;;;;12.66;63.78;100637.53;4860872;28;121468;-80
2024/01/22 11:10:10;;;;;;;6.22;1.80;;;;;;;12.64;64.06;100650.06;4855637;28;118991;-80
2024/01/22 11:12:48;;;;;;;8.93;1.50;;;;;;;12.63;63.97;100643.00;4872734;28;123113;-80
2024/01/22 11:15:16;;;;;;;12.75;2.22;;;;;;;12.64;64.06;100644.75;4871576;28;125003;-80
2024/01/22 11:17:43;;;;;;;7.30;1.60;;;;;;;12.65;63.92;100641.13;4865012;28;119912;-79
2024/01/22 11:20:20;;;;;;;5.70;1.38;;;;;;;12.66;64.19;100642.00;4875926;28;118393;-79
2024/01/22 11:23:01;;;;;;;11.90;2.40;;;;;;;12.71;64.07;100649.69;4853920;28;122817;-80